Benton, Kentucky
Current Conditions -  °F | °C
As of 2:15 AM on Monday 24 Nov 2014 (Local Time) from KCEY Reporting Station
Overcast Overcast  
Wind Chill: 61°   Ceiling: 2400
Heat Index: 61°   Visibility: 10mi
Dew Point: 55°   Wind: 17mph
Humidity: 82%   Direction: 210°SSW
Pressure: 29.36"   Gusts: 29mph
Location:  36.86°N, 88.35°W
Report Text: KCEY 240815Z AUTO 21015G25KT 170V230 10SM BKN024 OVC032 16/13 A2936 RMK AO1
Loading
Personal Weather Stations






























Interactive Weather Map New forecast layout! Learn more

10-Day Weather Forecast

Advertisements
Track Severe Weather on mobile